map of NMT home
NMT - Airport
Location
City:  Namtu, Shan, Myanmar (Burma)
ICAO:VYNT
IATA:NMT

Details
Type:Airport (Aerodrome, Airfield)
Latitude:23°05'N (23.083)
Longitude:97°23'E (97.383)
Elevation:2000 ft (610 m)
Variation:0.70°W (WMM2015 magnetic declination)
0.02° annual change

Time
Time Zone:UTC+6:30
Local Time:

Weather
METAR:VYNT 161300Z 34003KT 5000 FEW018 26/22 Q1015
TAF:VYNT 161100Z 1612/1712 30006KT 5000 FEW018 FEW110
TEMPO 1612/1618 32006KT 5000 FEW018

Related Locations
Nearby:
Farthest:SCFX: 12163 mi / 19575 km
Isla San Félix, Desventuradas Islands, VS, CL

Find:

   beyond  
but within

Other Information
Maps:
NOTAMs:
Links:
Sources:

  
  • flag of Myanmar (Burma)
  • flag of Shan
  

Sectional Chart

Flight Planning
at skyvector.com

Satellite Image

Google Maps Satellite view

 

Copyright © 2004-2018 Karl L. Swartz. All rights reserved.
The Great Circle Mapper name and logo are trademarks of the Great Circle Mapper.
All other trademarks mentioned herein belong to their respective owners.
Please see credits for attibutions and further copyright information.

  Follow gcmap on Facebook Follow gcmap on Twitter Follow gcmap on Google+ GCmap on LinkedIn

hCard Microformat

Geo Microformat